Aksa, Russia
Current Conditions -  °F | °C
As of 10:00 AM on Monday 22 Dec 2014 (Local Time) from UIAA Reporting Station
Broken Clouds Broken Clouds  
Wind Chill:   Ceiling: 20000
Heat Index: 19°   Visibility: 6mi
Dew Point: 10°   Wind: 11mph
Humidity: 68%   Direction: 180°S
Pressure: 29.83"   Gusts: NA
Location:  50.27°N, 113.27°E
Report Text: UIAA 220100Z 18005MPS 9999 FEW050 BKN200 M07/M12 Q1010 NOSIGRMK QFE699 29390050
Loading
Personal Weather Stations






























Interactive Weather Map New forecast layout! Learn more

10-Day Weather Forecast

Advertisements
Track Severe Weather on mobile